This is the latest recevied weather packets stored in our database for station/object KI4NG. If no packets are shown the sender has not sent any weather packets the latest 1 day(s).
| Time | Temp. | Humidity | Pressure | Rain* | Wind** | Luminosity | Snow |
|---|---|---|---|---|---|---|---|
| 1777981065 | 12.78° C | 78% | 1014 hPa | 0 mm | 0.45 m/s, 183° | 48 W/m² | - |
| 1777980761 | 12.78° C | 77% | 1014 hPa | 0 mm | 0.45 m/s, 156° | 44 W/m² | - |
| 1777980457 | 13.33° C | 75% | 1014 hPa | 0 mm | 0.45 m/s, 150° | 39 W/m² | - |
| 1777980155 | 12.78° C | 77% | 1014 hPa | 0 mm | 0 m/s | 35 W/m² | - |
| 1777979855 | 13.33° C | 75% | 1014 hPa | 0 mm | 0.45 m/s, 173° | 30 W/m² | - |
| 1777979551 | 13.89° C | 72% | 1013.9 hPa | 0 mm | 1.34 m/s, 175° | 24 W/m² | - |
| 1777979247 | 13.89° C | 70% | 1013.8 hPa | 0 mm | 1.34 m/s, 144° | 21 W/m² | - |
| 1777978945 | 13.89° C | 74% | 1014 hPa | 0 mm | 0.45 m/s, 152° | 16 W/m² | - |
| 1777978641 | 14.44° C | 69% | 1013.9 hPa | 0 mm | 0.89 m/s, 191° | 12 W/m² | - |
| 1777978337 | 14.44° C | 68% | 1013.8 hPa | 0 mm | 1.34 m/s, 186° | 6 W/m² | - |
| 1777978034 | 13.89° C | 69% | 1013.7 hPa | 0 mm | 1.79 m/s, 159° | 3 W/m² | - |
| 1777977731 | 13.89° C | 69% | 1013.8 hPa | 0 mm | 0.89 m/s, 181° | 1 W/m² | - |
| 1777977428 | 13.89° C | 70% | 1013.6 hPa | 0 mm | 0.89 m/s, 144° | 0 W/m² | - |
| 1777977126 | 13.89° C | 72% | 1013.5 hPa | 0 mm | 0.45 m/s, 156° | 0 W/m² | - |
| 1777976822 | 13.33° C | 74% | 1013.4 hPa | 0 mm | 0.45 m/s, 149° | 0 W/m² | - |
| 1777976520 | 13.89° C | 73% | 1013.5 hPa | 0 mm | 0.89 m/s, 162° | 0 W/m² | - |
| 1777976219 | 13.89° C | 69% | 1013.6 hPa | 0 mm | 1.34 m/s, 139° | 0 W/m² | - |
| 1777975915 | 13.89° C | 71% | 1013.5 hPa | 0 mm | 0.89 m/s, 116° | 0 W/m² | - |
| 1777975611 | 13.89° C | 70% | 1013.8 hPa | 0 mm | 1.79 m/s, 174° | 0 W/m² | - |
| 1777975309 | 13.89° C | 71% | 1013.6 hPa | 0 mm | 0.89 m/s, 138° | 0 W/m² | - |
| 1777975004 | 13.89° C | 72% | 1013.6 hPa | 0 mm | 0.89 m/s, 190° | 0 W/m² | - |
| 1777974702 | 13.89° C | 71% | 1013.4 hPa | 0 mm | 2.24 m/s, 117° | 0 W/m² | - |
| 1777974397 | 13.89° C | 71% | 1013.3 hPa | 0 mm | 1.34 m/s, 156° | 0 W/m² | - |
| 1777974094 | 13.89° C | 71% | 1013.4 hPa | 0 mm | 1.34 m/s, 166° | 0 W/m² | - |
| 1777973790 | 13.89° C | 72% | 1013.6 hPa | 0 mm | 0.45 m/s, 154° | 0 W/m² | - |
* Rain latest hour (hover to see other rain measurements)
** Current wind speed in m/s (hover to see current wind gust speed)